Time;durP1;ratioP1;P1;durP2;ratioP2;P2;SDS_P1;SDS_P2;PMS_P1;PMS_P2;Temp;Humidity;BMP_temperature;BMP_pressure;BME280_temperature;BME280_humidity;BME280_pressure;Samples;Min_cycle;Max_cycle;Signal;HPM_P1;HPM_P2
2022/09/09 00:02:35;;;;;;;1.08;0.90;;;14.10;99.90;;;;;;5201270;28;20055;-73
2022/09/09 00:05:26;;;;;;;1.08;0.98;;;14.10;99.90;;;;;;5217739;28;20057;-73
2022/09/09 00:08:03;;;;;;;1.05;1.02;;;14.10;99.90;;;;;;5224488;28;20660;-73
2022/09/09 00:10:46;;;;;;;2.45;1.33;;;14.20;99.90;;;;;;5237045;28;20048;-73
2022/09/09 00:13:29;;;;;;;1.42;0.88;;;14.20;99.90;;;;;;5229799;28;20033;-73
2022/09/09 00:16:13;;;;;;;1.25;0.80;;;14.20;99.90;;;;;;5211411;28;20224;-72
2022/09/09 00:18:51;;;;;;;;;;;14.10;99.90;;;;;;5201898;28;20039;-72
2022/09/09 00:21:32;;;;;;;2.55;1.40;;;14.00;99.90;;;;;;5223983;28;19917;-73
2022/09/09 00:24:20;;;;;;;1.20;1.10;;;13.90;99.90;;;;;;5220258;28;20041;-73
2022/09/09 00:27:09;;;;;;;1.00;1.00;;;13.80;99.90;;;;;;5197375;28;20039;-74
2022/09/09 00:30:48;;;;;;;0.90;0.90;;;13.70;99.90;;;;;;5197288;28;20025;-73
2022/09/09 00:33:23;;;;;;;0.80;0.80;;;13.50;99.90;;;;;;5156070;28;20050;-73
2022/09/09 00:36:00;;;;;;;0.95;0.88;;;13.40;99.90;;;;;;5155237;28;20038;-71
2022/09/09 00:38:40;;;;;;;0.90;0.73;;;13.30;99.90;;;;;;5157982;28;21005;-72
2022/09/09 00:41:17;;;;;;;1.20;1.10;;;13.30;99.90;;;;;;5159448;28;20550;-73
2022/09/09 00:44:35;;;;;;;1.70;1.15;;;13.20;99.90;;;;;;5175084;28;20049;-72
2022/09/09 00:47:35;;;;;;;1.10;1.00;;;13.10;99.90;;;;;;5169459;28;20602;-74
2022/09/09 00:50:57;;;;;;;1.23;1.10;;;13.10;99.90;;;;;;5161523;28;20503;-74
2022/09/09 00:53:53;;;;;;;0.90;0.90;;;13.10;99.90;;;;;;5105895;29;20035;-72
2022/09/09 00:57:13;;;;;;;0.90;0.90;;;13.10;99.90;;;;;;5095656;29;20607;-72
2022/09/09 00:59:48;;;;;;;2.03;1.10;;;13.00;99.90;;;;;;5055669;29;20104;-72
2022/09/09 01:02:52;;;;;;;0.77;0.77;;;12.90;99.90;;;;;;5054681;29;20058;-72
2022/09/09 01:05:52;;;;;;;1.20;1.10;;;12.90;99.90;;;;;;5033632;29;20063;-71
2022/09/09 01:08:42;;;;;;;1.77;1.00;;;12.80;99.90;;;;;;5059892;29;20050;-74
2022/09/09 01:11:25;;;;;;;0.95;0.95;;;12.80;99.90;;;;;;5094725;29;20077;-73
2022/09/09 01:14:23;;;;;;;1.52;1.08;;;12.80;99.90;;;;;;5101881;29;20035;-72
2022/09/09 01:17:07;;;;;;;1.50;1.10;;;12.80;99.90;;;;;;5114972;29;20057;-72
2022/09/09 01:19:59;;;;;;;2.38;1.10;;;12.80;99.90;;;;;;5120767;28;20043;-72
2022/09/09 01:23:22;;;;;;;2.85;1.15;;;12.80;99.90;;;;;;5120278;28;20039;-73
2022/09/09 01:26:20;;;;;;;0.98;0.98;;;12.80;99.90;;;;;;5154446;28;20033;-74
2022/09/09 01:28:58;;;;;;;2.17;1.38;;;13.00;99.90;;;;;;5138963;28;20063;-72
2022/09/09 01:31:42;;;;;;;1.13;1.10;;;13.20;99.90;;;;;;5138900;28;20038;-72
2022/09/09 01:34:19;;;;;;;4.33;1.17;;;13.50;99.90;;;;;;5139005;28;20040;-73
2022/09/09 01:37:08;;;;;;;1.35;1.20;;;13.80;99.90;;;;;;5201152;28;20281;-74
2022/09/09 01:39:43;;;;;;;1.42;0.98;;;13.90;99.90;;;;;;5198120;28;20044;-74
2022/09/09 01:42:18;;;;;;;0.85;0.85;;;14.00;99.90;;;;;;5222217;28;20026;-75
2022/09/09 01:44:54;;;;;;;0.90;0.90;;;14.00;99.90;;;;;;5220449;28;20055;-75
2022/09/09 01:47:25;;;;;;;2.08;1.10;;;14.00;99.90;;;;;;5221535;28;20180;-71
2022/09/09 01:50:04;;;;;;;0.90;0.90;;;13.80;99.90;;;;;;5230010;28;20036;-73
2022/09/09 01:52:41;;;;;;;0.75;0.75;;;13.70;99.90;;;;;;5239980;28;20059;-75
2022/09/09 01:55:16;;;;;;;2.38;0.90;;;13.50;99.90;;;;;;5221057;28;20050;-73
2022/09/09 01:58:34;;;;;;;1.15;1.05;;;13.40;99.90;;;;;;5241263;28;20040;-74
2022/09/09 02:01:21;;;;;;;1.00;1.00;;;13.20;99.90;;;;;;5205389;28;20329;-74
2022/09/09 02:04:00;;;;;;;1.15;0.82;;;13.20;99.90;;;;;;5220686;28;20350;-74
2022/09/09 02:06:40;;;;;;;4.25;0.98;;;13.10;99.90;;;;;;5210926;28;20103;-74
2022/09/09 02:09:16;;;;;;;2.03;1.30;;;13.10;99.90;;;;;;5219385;28;20058;-73
2022/09/09 02:12:07;;;;;;;0.90;0.90;;;13.00;99.90;;;;;;5220035;28;20045;-74
2022/09/09 02:14:51;;;;;;;1.00;1.00;;;12.90;99.90;;;;;;5220154;28;20111;-73
2022/09/09 02:17:33;;;;;;;1.10;1.10;;;13.00;99.90;;;;;;5224152;28;20028;-74
2022/09/09 02:20:15;;;;;;;1.33;1.15;;;12.90;99.90;;;;;;5246724;28;20569;-73
2022/09/09 02:22:50;;;;;;;1.00;1.00;;;12.90;99.90;;;;;;5220310;28;20032;-74
2022/09/09 02:25:29;;;;;;;1.38;1.27;;;12.80;99.90;;;;;;5222301;28;20063;-74
2022/09/09 02:28:06;;;;;;;1.73;1.00;;;12.70;99.90;;;;;;5240183;28;20663;-73
2022/09/09 02:30:44;;;;;;;0.88;0.88;;;12.70;99.90;;;;;;5220894;28;20032;-73
2022/09/09 02:33:17;;;;;;;0.90;0.90;;;12.60;99.90;;;;;;5236184;28;20058;-73
2022/09/09 02:35:54;;;;;;;1.00;1.00;;;12.70;99.90;;;;;;5215986;28;20032;-73
2022/09/09 02:38:28;;;;;;;1.83;0.90;;;12.80;99.90;;;;;;5218075;28;20219;-73
2022/09/09 02:41:01;;;;;;;0.85;0.85;;;12.80;99.90;;;;;;5237970;28;20032;-72
2022/09/09 02:43:34;;;;;;;2.85;1.10;;;12.80;99.90;;;;;;5219436;28;20043;-73
2022/09/09 02:46:18;;;;;;;1.30;1.20;;;12.80;99.90;;;;;;5215168;28;20041;-71
2022/09/09 02:49:01;;;;;;;1.20;1.10;;;12.70;99.90;;;;;;5229150;28;20046;-73
2022/09/09 02:51:54;;;;;;;1.40;1.30;;;12.70;99.90;;;;;;5240328;28;20047;-72
2022/09/09 02:54:30;;;;;;;2.33;1.20;;;12.70;99.90;;;;;;5199769;28;20040;-72
2022/09/09 02:57:33;;;;;;;1.30;1.20;;;12.80;99.90;;;;;;5218976;28;20029;-73
2022/09/09 03:00:12;;;;;;;1.17;1.10;;;12.80;99.90;;;;;;5221216;28;20044;-72
2022/09/09 03:02:46;;;;;;;2.08;1.20;;;12.70;99.90;;;;;;5219399;28;20037;-73
2022/09/09 03:05:20;;;;;;;1.88;1.30;;;12.70;99.90;;;;;;5232458;28;20047;-72
2022/09/09 03:08:00;;;;;;;1.30;1.20;;;12.80;99.90;;;;;;5225040;28;20040;-72
2022/09/09 03:10:35;;;;;;;1.42;1.33;;;12.70;99.90;;;;;;5236547;28;20051;-72
2022/09/09 03:13:09;;;;;;;1.23;1.13;;;12.70;99.90;;;;;;5212490;28;20037;-73
2022/09/09 03:15:43;;;;;;;1.77;1.20;;;12.80;99.90;;;;;;5199398;28;20044;-73
2022/09/09 03:18:17;;;;;;;1.45;1.25;;;12.80;99.90;;;;;;5227805;28;20033;-71
2022/09/09 03:20:51;;;;;;;1.40;1.30;;;12.80;99.90;;;;;;5234204;28;20106;-72
2022/09/09 03:23:29;;;;;;;3.00;1.50;;;12.70;99.90;;;;;;5237774;28;20050;-73
2022/09/09 03:26:02;;;;;;;1.38;1.20;;;12.70;99.90;;;;;;5230229;28;20051;-72
2022/09/09 03:28:35;;;;;;;1.45;1.35;;;12.90;99.90;;;;;;5240504;28;20035;-72
2022/09/09 03:31:10;;;;;;;3.67;1.17;;;12.90;99.90;;;;;;5240674;28;20045;-73
2022/09/09 03:33:47;;;;;;;1.25;1.15;;;13.00;99.90;;;;;;5224180;28;20036;-72
2022/09/09 03:36:19;;;;;;;1.17;1.08;;;13.00;99.90;;;;;;5224752;28;20034;-72
2022/09/09 03:38:50;;;;;;;1.33;1.13;;;12.90;99.90;;;;;;5224024;28;20435;-72
2022/09/09 03:41:28;;;;;;;1.17;1.10;;;12.80;99.90;;;;;;5239307;28;20020;-72
2022/09/09 03:44:04;;;;;;;1.42;1.08;;;12.80;99.90;;;;;;5238117;28;20041;-72
2022/09/09 03:46:43;;;;;;;2.63;1.40;;;12.70;99.90;;;;;;5227606;28;20040;-72
2022/09/09 03:49:21;;;;;;;1.60;1.10;;;12.70;99.90;;;;;;5229832;28;20032;-72
2022/09/09 03:51:53;;;;;;;1.70;1.42;;;12.60;99.90;;;;;;5234407;28;20079;-72
2022/09/09 03:54:28;;;;;;;1.00;1.00;;;12.60;99.90;;;;;;5224213;28;20142;-72
2022/09/09 03:57:02;;;;;;;1.30;1.20;;;12.50;99.90;;;;;;5237867;28;20490;-72
2022/09/09 03:59:41;;;;;;;1.13;1.08;;;12.40;99.90;;;;;;5217999;28;20035;-74
2022/09/09 04:02:15;;;;;;;2.17;0.98;;;12.40;99.90;;;;;;5230273;28;20039;-74
2022/09/09 04:04:48;;;;;;;;;;;12.40;99.90;;;;;;5208131;28;20049;-74
2022/09/09 04:07:20;;;;;;;1.10;1.10;;;12.40;99.90;;;;;;5227958;28;19908;-74
2022/09/09 04:09:54;;;;;;;1.10;1.10;;;12.40;99.90;;;;;;5239216;28;20032;-74
2022/09/09 04:12:28;;;;;;;0.88;0.80;;;12.50;99.90;;;;;;5203209;28;20044;-74
2022/09/09 04:15:04;;;;;;;1.45;1.10;;;12.50;99.90;;;;;;5226109;28;20033;-74
2022/09/09 04:17:44;;;;;;;1.30;1.20;;;12.40;99.90;;;;;;5203170;28;20029;-73
2022/09/09 04:20:19;;;;;;;1.50;1.00;;;12.40;99.90;;;;;;5239163;28;20438;-74
2022/09/09 04:22:53;;;;;;;;;;;12.30;99.90;;;;;;5242883;28;20367;-74
2022/09/09 04:25:27;;;;;;;1.20;1.10;;;12.20;99.90;;;;;;5206447;28;19908;-74
2022/09/09 04:28:00;;;;;;;1.50;1.40;;;12.20;99.90;;;;;;5239070;28;20033;-75
2022/09/09 04:30:35;;;;;;;2.83;1.13;;;12.20;99.90;;;;;;5207406;28;20028;-73
2022/09/09 04:33:07;;;;;;;1.30;1.17;;;12.20;99.90;;;;;;5241690;28;20338;-74
2022/09/09 04:35:46;;;;;;;1.50;1.40;;;12.20;99.90;;;;;;5241217;28;20024;-74
2022/09/09 04:38:22;;;;;;;1.67;1.58;;;12.20;99.90;;;;;;5206542;28;20040;-74
2022/09/09 04:40:53;;;;;;;1.33;1.23;;;12.20;99.90;;;;;;5218697;28;20047;-75
2022/09/09 04:43:30;;;;;;;2.60;1.35;;;12.30;99.90;;;;;;5220277;28;20041;-74
2022/09/09 04:46:02;;;;;;;1.73;1.30;;;12.30;99.90;;;;;;5207605;28;20028;-73
2022/09/09 04:48:36;;;;;;;1.20;1.10;;;12.40;99.90;;;;;;5205731;28;20036;-74
2022/09/09 04:51:19;;;;;;;1.50;1.40;;;12.40;99.90;;;;;;5221956;28;20351;-73
2022/09/09 04:53:53;;;;;;;1.85;1.10;;;12.40;99.90;;;;;;5241124;28;20577;-73
2022/09/09 04:56:28;;;;;;;1.05;1.05;;;12.50;99.90;;;;;;5220141;28;20033;-72
2022/09/09 04:59:00;;;;;;;1.10;1.08;;;12.60;99.90;;;;;;5220339;28;20028;-72
2022/09/09 05:01:33;;;;;;;3.50;1.20;;;12.60;99.90;;;;;;5220502;28;20051;-73
2022/09/09 05:04:05;;;;;;;1.67;1.40;;;12.70;99.90;;;;;;5212429;28;20045;-73
2022/09/09 05:06:39;;;;;;;1.63;1.45;;;12.80;99.90;;;;;;5211421;28;20549;-72
2022/09/09 05:09:13;;;;;;;;;;;12.80;99.90;;;;;;5202385;28;20526;-72
2022/09/09 05:11:47;;;;;;;1.33;1.25;;;12.80;99.90;;;;;;5238069;28;19916;-73
2022/09/09 05:14:19;;;;;;;1.88;1.30;;;12.80;99.90;;;;;;5240041;28;20043;-73
2022/09/09 05:16:53;;;;;;;1.23;1.13;;;12.80;99.90;;;;;;5205923;28;20036;-73
2022/09/09 05:19:27;;;;;;;1.52;1.42;;;12.90;99.90;;;;;;5236374;28;20569;-73
2022/09/09 05:21:58;;;;;;;1.30;1.20;;;13.00;99.90;;;;;;5240288;28;20043;-74
2022/09/09 05:24:32;;;;;;;3.33;1.40;;;13.10;99.90;;;;;;5236557;28;20025;-73
2022/09/09 05:27:12;;;;;;;4.28;1.45;;;13.30;99.90;;;;;;5212440;28;20339;-73
2022/09/09 05:29:48;;;;;;;1.55;1.02;;;13.30;99.90;;;;;;5239741;28;20314;-73
2022/09/09 05:32:19;;;;;;;1.48;1.38;;;13.40;99.90;;;;;;5240596;28;20039;-73
2022/09/09 05:34:53;;;;;;;1.83;1.38;;;13.50;99.90;;;;;;5240106;28;20044;-72
2022/09/09 05:37:27;;;;;;;2.88;1.60;;;13.60;99.90;;;;;;5238650;28;20048;-72
2022/09/09 05:40:00;;;;;;;1.45;1.15;;;13.70;99.90;;;;;;5232165;28;20356;-73
2022/09/09 05:42:34;;;;;;;4.13;1.50;;;13.80;99.90;;;;;;5229668;28;20384;-72
2022/09/09 05:45:09;;;;;;;1.50;1.40;;;13.90;99.90;;;;;;5239044;28;20050;-71
2022/09/09 05:47:40;;;;;;;1.40;1.30;;;14.00;99.90;;;;;;5217789;28;20582;-72
2022/09/09 05:50:16;;;;;;;1.30;1.10;;;14.10;99.90;;;;;;5202903;28;20033;-72
2022/09/09 05:52:52;;;;;;;1.27;1.17;;;14.30;99.90;;;;;;5231675;28;20030;-73
2022/09/09 05:55:25;;;;;;;1.40;1.30;;;14.40;99.90;;;;;;5220840;28;20036;-72
2022/09/09 05:57:59;;;;;;;1.20;1.10;;;14.50;99.90;;;;;;5243192;28;20036;-73
2022/09/09 06:00:32;;;;;;;1.45;1.17;;;14.70;99.90;;;;;;5223989;28;21492;-72
2022/09/09 06:03:05;;;;;;;1.75;1.30;;;14.90;99.90;;;;;;5242988;28;20049;-72
2022/09/09 06:05:41;;;;;;;1.10;1.00;;;15.10;99.90;;;;;;5216456;28;20086;-73
2022/09/09 06:08:13;;;;;;;1.50;1.20;;;15.30;99.90;;;;;;5236544;28;20230;-72
2022/09/09 06:10:45;;;;;;;1.42;1.30;;;15.50;99.90;;;;;;5208339;28;20043;-73
2022/09/09 06:13:17;;;;;;;1.38;1.27;;;15.80;99.90;;;;;;5218571;28;20033;-73
2022/09/09 06:15:52;;;;;;;1.20;1.10;;;16.00;99.90;;;;;;5203523;28;20253;-73
2022/09/09 06:18:29;;;;;;;1.73;1.35;;;16.30;99.90;;;;;;5220982;28;20025;-73
2022/09/09 06:21:09;;;;;;;1.55;1.45;;;16.30;99.90;;;;;;5238979;28;20395;-73
2022/09/09 06:23:44;;;;;;;2.45;1.50;;;16.40;99.90;;;;;;5234060;28;20047;-73
2022/09/09 06:26:20;;;;;;;10.93;2.28;;;16.70;99.90;;;;;;5193099;28;20038;-73
2022/09/09 06:28:54;;;;;;;1.58;1.25;;;16.90;99.90;;;;;;5220670;28;20044;-73
2022/09/09 06:31:33;;;;;;;1.30;1.20;;;17.10;99.90;;;;;;5214919;28;20047;-74
2022/09/09 06:34:10;;;;;;;2.03;1.10;;;17.10;99.90;;;;;;5198174;28;20047;-73
2022/09/09 06:36:42;;;;;;;2.78;1.42;;;17.10;99.90;;;;;;5209511;28;20041;-73
2022/09/09 06:39:15;;;;;;;1.98;1.20;;;17.00;99.90;;;;;;5236432;28;20237;-73
2022/09/09 06:41:47;;;;;;;2.22;1.20;;;17.30;99.90;;;;;;5236987;28;20037;-75
2022/09/09 06:44:19;;;;;;;1.65;1.33;;;17.50;99.90;;;;;;5219910;28;20055;-73
2022/09/09 06:46:50;;;;;;;1.33;1.17;;;17.70;99.90;;;;;;5230864;28;20028;-73
2022/09/09 06:49:27;;;;;;;1.60;1.50;;;17.90;99.90;;;;;;5217564;28;20268;-73
2022/09/09 06:51:58;;;;;;;2.55;1.17;;;18.00;99.90;;;;;;5224447;28;20056;-72
2022/09/09 06:54:29;;;;;;;1.30;1.20;;;17.90;99.90;;;;;;5217577;28;20056;-73
2022/09/09 06:57:07;;;;;;;1.30;1.20;;;18.00;99.90;;;;;;5231637;28;20265;-73
2022/09/09 06:59:38;;;;;;;1.15;1.05;;;18.30;99.90;;;;;;5204431;28;20459;-73
2022/09/09 07:02:12;;;;;;;3.25;1.23;;;18.40;99.90;;;;;;5233707;28;20044;-72
2022/09/09 07:04:46;;;;;;;1.00;1.00;;;18.50;99.90;;;;;;5220212;28;20614;-72
2022/09/09 07:07:19;;;;;;;2.28;1.33;;;18.80;99.90;;;;;;5213403;28;20037;-74
2022/09/09 07:09:56;;;;;;;1.40;1.13;;;18.90;99.90;;;;;;5222248;28;20037;-74
2022/09/09 07:12:30;;;;;;;1.15;1.05;;;18.70;99.90;;;;;;5220412;28;20463;-74
2022/09/09 07:15:04;;;;;;;1.25;1.23;;;18.60;99.90;;;;;;5218819;28;20035;-74
2022/09/09 07:17:36;;;;;;;;;;;18.90;99.90;;;;;;5216198;28;20044;-73
2022/09/09 07:20:12;;;;;;;1.38;1.27;;;18.90;99.90;;;;;;5216713;28;19913;-75
2022/09/09 07:22:43;;;;;;;1.20;1.10;;;19.20;99.90;;;;;;5215687;28;20376;-74
2022/09/09 07:25:17;;;;;;;2.10;1.20;;;19.70;99.90;;;;;;5219487;28;20043;-74
2022/09/09 07:27:54;;;;;;;1.25;1.00;;;20.10;99.90;;;;;;5229137;28;20063;-74
2022/09/09 07:30:30;;;;;;;1.05;0.95;;;20.40;99.90;;;;;;5211088;28;20040;-74
2022/09/09 07:33:03;;;;;;;1.23;0.90;;;20.10;99.90;;;;;;5215397;28;20036;-75
2022/09/09 07:35:39;;;;;;;1.35;1.20;;;20.30;99.90;;;;;;5243198;28;20041;-73
2022/09/09 07:38:11;;;;;;;1.02;1.00;;;20.60;99.90;;;;;;5228539;28;20633;-74
2022/09/09 07:40:43;;;;;;;1.17;1.08;;;20.70;99.90;;;;;;5220686;28;20043;-74
2022/09/09 07:43:17;;;;;;;4.05;1.30;;;20.90;99.90;;;;;;5218763;28;20029;-74
2022/09/09 07:45:58;;;;;;;3.70;1.30;;;21.20;99.90;;;;;;5219927;28;20550;-75
2022/09/09 07:48:32;;;;;;;3.80;1.40;;;21.40;99.90;;;;;;5226705;28;20074;-75
2022/09/09 07:51:10;;;;;;;1.92;1.20;;;21.60;99.90;;;;;;5217957;28;20043;-74
2022/09/09 07:53:44;;;;;;;1.33;1.23;;;21.70;99.90;;;;;;5218165;28;20051;-74
2022/09/09 07:56:22;;;;;;;2.05;1.88;;;21.80;99.90;;;;;;5218233;28;20037;-72
2022/09/09 07:58:57;;;;;;;2.42;1.27;;;22.00;99.90;;;;;;5219094;28;20048;-73
2022/09/09 08:01:38;;;;;;;1.65;1.20;;;21.90;99.90;;;;;;5213297;28;20033;-75
2022/09/09 08:04:16;;;;;;;1.20;1.10;;;22.30;99.90;;;;;;5204477;28;20041;-73
2022/09/09 08:06:54;;;;;;;1.20;1.00;;;22.70;99.90;;;;;;5184957;28;20059;-71
2022/09/09 08:09:28;;;;;;;2.45;1.00;;;23.20;99.90;;;;;;5240116;28;20036;-70
2022/09/09 08:12:02;;;;;;;1.30;1.08;;;23.20;99.90;;;;;;5219239;28;20040;-70
2022/09/09 08:14:39;;;;;;;1.23;0.85;;;23.30;99.90;;;;;;5206740;28;20043;-70
2022/09/09 08:17:15;;;;;;;3.47;1.10;;;23.70;99.90;;;;;;5213665;28;20032;-71
2022/09/09 08:19:47;;;;;;;2.28;0.80;;;24.00;99.90;;;;;;5233029;28;20310;-73
2022/09/09 08:22:19;;;;;;;1.42;1.00;;;24.10;99.90;;;;;;5229874;28;20051;-73
2022/09/09 08:24:53;;;;;;;1.40;0.70;;;23.90;99.90;;;;;;5230744;28;20044;-73
2022/09/09 08:27:25;;;;;;;;;;;24.20;99.90;;;;;;5230194;28;20048;-73
2022/09/09 08:29:56;;;;;;;2.70;0.80;;;24.40;99.90;;;;;;5197635;28;20282;-72
2022/09/09 08:32:28;;;;;;;1.33;0.90;;;24.50;99.90;;;;;;5213596;28;20631;-73
2022/09/09 08:34:59;;;;;;;2.10;0.85;;;24.50;99.90;;;;;;5229817;28;20040;-71
2022/09/09 08:37:31;;;;;;;1.45;1.20;;;24.50;99.90;;;;;;5230506;28;20314;-72
2022/09/09 08:40:03;;;;;;;1.38;1.13;;;23.90;99.90;;;;;;5224740;28;20066;-73
2022/09/09 08:42:50;;;;;;;1.30;1.20;;;24.00;99.90;;;;;;5232652;28;20037;-73
2022/09/09 08:45:50;;;;;;;1.10;0.95;;;24.50;99.90;;;;;;5216039;28;20040;-73
2022/09/09 08:49:19;;;;;;;1.98;0.90;;;25.30;99.90;;;;;;5221276;28;20044;-71
2022/09/09 08:51:57;;;;;;;1.40;0.70;;;25.80;99.90;;;;;;5211540;28;20036;-71
2022/09/09 08:54:36;;;;;;;1.02;0.90;;;25.90;99.90;;;;;;5223034;28;20029;-71
2022/09/09 08:57:20;;;;;;;2.25;1.02;;;26.00;99.90;;;;;;5235537;28;20616;-73
2022/09/09 08:59:57;;;;;;;2.92;1.02;;;26.30;99.90;;;;;;5199227;28;20036;-73
2022/09/09 09:03:01;;;;;;;1.10;0.93;;;26.90;99.90;;;;;;5222780;28;20032;-72
2022/09/09 09:06:17;;;;;;;0.75;0.75;;;27.40;99.90;;;;;;5193828;28;20056;-74
2022/09/09 09:09:01;;;;;;;1.13;0.80;;;27.70;99.90;;;;;;5224271;28;20047;-72
2022/09/09 09:11:42;;;;;;;1.23;1.13;;;27.70;99.90;;;;;;5237165;28;20024;-74
2022/09/09 09:14:34;;;;;;;1.52;0.80;;;27.40;99.90;;;;;;5218022;28;20033;-72
2022/09/09 09:17:20;;;;;;;0.73;0.70;;;27.30;99.90;;;;;;5220363;28;20031;-74
2022/09/09 09:19:51;;;;;;;0.70;0.70;;;27.00;99.90;;;;;;5217255;28;20060;-74
2022/09/09 09:22:32;;;;;;;1.45;0.70;;;27.20;99.90;;;;;;5228511;28;20032;-73
2022/09/09 09:25:34;;;;;;;1.00;0.88;;;27.10;99.90;;;;;;5209862;28;20036;-74
2022/09/09 09:28:25;;;;;;;1.67;0.90;;;26.60;99.90;;;;;;5191586;28;20051;-73
2022/09/09 09:31:14;;;;;;;1.52;1.00;;;26.90;99.90;;;;;;5215058;28;20024;-74
2022/09/09 09:33:55;;;;;;;0.60;0.57;;;27.10;99.90;;;;;;5199382;28;20036;-73
2022/09/09 09:36:42;;;;;;;1.92;0.70;;;27.50;99.90;;;;;;5198361;28;20231;-72
2022/09/09 09:39:29;;;;;;;1.67;0.73;;;27.40;99.90;;;;;;5215977;28;20045;-72
2022/09/09 09:42:13;;;;;;;1.30;0.70;;;27.30;99.90;;;;;;5215946;28;20098;-72
2022/09/09 09:44:47;;;;;;;0.77;0.60;;;27.40;99.90;;;;;;5214419;28;20052;-72
2022/09/09 09:47:29;;;;;;;1.15;0.75;;;27.10;99.90;;;;;;5235938;28;20500;-72
2022/09/09 09:50:02;;;;;;;0.80;0.80;;;27.50;99.90;;;;;;5229804;28;20032;-72
2022/09/09 09:52:36;;;;;;;0.93;0.60;;;27.70;99.90;;;;;;5215286;28;20047;-72
2022/09/09 09:55:14;;;;;;;1.17;0.82;;;27.70;99.90;;;;;;5236891;28;20261;-72
2022/09/09 09:57:48;;;;;;;0.50;0.50;;;28.30;99.90;;;;;;5227811;28;20483;-72
2022/09/09 10:00:22;;;;;;;;;;;28.30;99.90;;;;;;5216077;28;20053;-72
2022/09/09 10:02:54;;;;;;;3.35;0.95;;;28.40;99.90;;;;;;5215984;28;19927;-71
2022/09/09 10:05:31;;;;;;;2.55;0.55;;;28.60;99.90;;;;;;5204186;28;20068;-71
2022/09/09 10:08:04;;;;;;;0.60;0.60;;;28.60;99.90;;;;;;5236102;28;20033;-71
2022/09/09 10:11:23;;;;;;;1.00;1.00;;;28.70;99.90;;;;;;5209469;28;20032;-71
2022/09/09 10:14:47;;;;;;;1.27;0.70;;;28.80;99.90;;;;;;5229209;28;20028;-71
2022/09/09 10:17:31;;;;;;;1.88;0.68;;;30.00;99.90;;;;;;5168417;28;20052;-73
2022/09/09 10:20:30;;;;;;;;;;;30.90;99.90;;;;;;5173873;28;20157;-73
2022/09/09 10:23:35;;;;;;;1.00;0.68;;;30.90;99.90;;;;;;5233295;28;19920;-71
2022/09/09 10:26:37;;;;;;;2.40;0.77;;;29.90;99.90;;;;;;5237633;28;20048;-71
2022/09/09 10:29:32;;;;;;;1.95;0.85;;;29.60;99.90;;;;;;5216336;28;20040;-72
2022/09/09 10:32:45;;;;;;;0.95;0.70;;;29.30;99.90;;;;;;5244736;28;20067;-73
2022/09/09 10:35:38;;;;;;;0.80;0.65;;;29.70;99.90;;;;;;5231003;28;20044;-72
2022/09/09 10:38:24;;;;;;;0.63;0.63;;;30.10;99.90;;;;;;5241663;28;20043;-72
2022/09/09 10:41:04;;;;;;;0.77;0.60;;;30.50;99.90;;;;;;5220471;28;20048;-70
2022/09/09 10:43:50;;;;;;;0.55;0.55;;;31.60;99.90;;;;;;5233825;28;20039;-73
2022/09/09 10:46:43;;;;;;;1.10;0.80;;;33.40;99.90;;;;;;5235066;28;20349;-72
2022/09/09 10:50:21;;;;;;;0.65;0.63;;;32.50;99.90;;;;;;5235623;28;20024;-72
2022/09/09 10:53:26;;;;;;;1.33;0.77;;;31.60;99.90;;;;;;5195358;28;20466;-72
2022/09/09 10:56:10;;;;;;;1.00;0.77;;;31.30;99.90;;;;;;5239798;28;20051;-72
2022/09/09 10:58:56;;;;;;;0.85;0.75;;;31.10;99.90;;;;;;5230609;28;20070;-72
2022/09/09 11:01:45;;;;;;;0.50;0.50;;;31.30;99.90;;;;;;5227738;28;20032;-71
2022/09/09 11:04:37;;;;;;;0.95;0.68;;;31.20;99.90;;;;;;5199946;28;20336;-73
2022/09/09 11:07:35;;;;;;;0.93;0.80;;;29.80;99.90;;;;;;5209904;28;20040;-72
2022/09/09 11:10:46;;;;;;;1.00;0.77;;;29.30;99.90;;;;;;5237053;28;20044;-73
2022/09/09 11:13:52;;;;;;;0.70;0.70;;;29.20;99.90;;;;;;5208451;28;20033;-72
2022/09/09 11:16:42;;;;;;;1.15;0.73;;;29.40;99.90;;;;;;5215977;28;20284;-72
2022/09/09 11:19:17;;;;;;;1.55;0.80;;;29.50;99.90;;;;;;5220377;28;20047;-72
2022/09/09 11:21:51;;;;;;;4.20;0.80;;;29.90;99.90;;;;;;5223578;28;20040;-71
2022/09/09 11:24:40;;;;;;;1.50;0.80;;;30.00;99.90;;;;;;5223711;28;20032;-71
2022/09/09 11:27:20;;;;;;;1.27;0.82;;;29.60;99.90;;;;;;5194451;28;20654;-71
2022/09/09 11:30:21;;;;;;;0.68;0.63;;;29.30;99.90;;;;;;5216683;28;20036;-72
2022/09/09 11:33:24;;;;;;;1.20;0.75;;;29.70;99.90;;;;;;5239580;28;20271;-71
2022/09/09 11:36:42;;;;;;;0.70;0.60;;;29.90;99.90;;;;;;5221725;28;20027;-71
2022/09/09 11:39:38;;;;;;;1.55;0.70;;;30.30;99.90;;;;;;5218643;28;20034;-72
2022/09/09 11:42:12;;;;;;;1.00;0.75;;;30.50;99.90;;;;;;5243603;28;20032;-70
2022/09/09 11:44:45;;;;;;;1.15;0.70;;;29.60;99.90;;;;;;5242623;28;20051;-71
2022/09/09 11:47:30;;;;;;;2.05;0.70;;;30.00;99.90;;;;;;5222072;28;20028;-71
2022/09/09 11:50:36;;;;;;;0.70;0.70;;;31.00;99.90;;;;;;5201199;28;20210;-72
2022/09/09 11:53:13;;;;;;;0.75;0.75;;;31.90;99.90;;;;;;5194994;28;20039;-71
2022/09/09 11:56:13;;;;;;;6.28;0.93;;;32.00;99.90;;;;;;5221196;28;20025;-72
2022/09/09 11:58:59;;;;;;;1.00;0.70;;;31.10;99.90;;;;;;5223142;28;20055;-71
2022/09/09 12:01:36;;;;;;;1.00;1.00;;;30.70;99.90;;;;;;5237739;28;20047;-73
2022/09/09 12:04:25;;;;;;;2.20;0.70;;;30.70;99.90;;;;;;5223273;28;20039;-71
2022/09/09 12:07:42;;;;;;;2.08;0.65;;;31.60;99.90;;;;;;5209379;28;20055;-72
2022/09/09 12:10:30;;;;;;;1.05;0.80;;;32.70;99.90;;;;;;5236760;28;20414;-72
2022/09/09 12:13:21;;;;;;;0.75;0.73;;;33.00;99.90;;;;;;5207201;28;20037;-74
2022/09/09 12:15:56;;;;;;;1.02;0.85;;;34.10;99.90;;;;;;5220605;28;20052;-74
2022/09/09 12:18:39;;;;;;;0.80;0.80;;;33.40;99.90;;;;;;5215608;28;20044;-72
2022/09/09 12:21:22;;;;;;;0.50;0.50;;;33.20;99.90;;;;;;5222477;28;20024;-73
2022/09/09 12:24:04;;;;;;;1.50;0.60;;;32.20;99.90;;;;;;5241190;28;20032;-74
2022/09/09 12:27:12;;;;;;;0.63;0.60;;;31.50;99.90;;;;;;5204774;28;20237;-73
2022/09/09 12:30:11;;;;;;;0.70;0.70;;;31.10;99.90;;;;;;5213709;28;20051;-72
2022/09/09 12:32:47;;;;;;;0.77;0.60;;;30.30;99.90;;;;;;5240463;28;20051;-72
2022/09/09 12:35:31;;;;;;;0.52;0.52;;;29.30;99.90;;;;;;5189905;28;20453;-74
2022/09/09 12:38:09;;;;;;;0.50;0.50;;;28.90;99.90;;;;;;5205520;28;20035;-74
2022/09/09 12:40:43;;;;;;;0.60;0.52;;;28.60;99.90;;;;;;5223834;28;20488;-73
2022/09/09 12:43:35;;;;;;;1.10;0.70;;;28.10;99.90;;;;;;5241783;28;20352;-73
2022/09/09 12:46:26;;;;;;;1.85;0.60;;;27.90;99.90;;;;;;5221118;28;20254;-72
2022/09/09 12:49:00;;;;;;;1.27;0.77;;;27.80;99.90;;;;;;5216923;28;20037;-72
2022/09/09 12:51:35;;;;;;;2.70;0.93;;;27.50;99.90;;;;;;5238797;28;20224;-74
2022/09/09 12:54:16;;;;;;;0.47;0.47;;;27.40;99.90;;;;;;5206171;28;20357;-74
2022/09/09 12:56:52;;;;;;;2.08;0.75;;;27.20;99.90;;;;;;5240964;28;20032;-74
2022/09/09 12:59:45;;;;;;;1.85;0.60;;;27.30;99.90;;;;;;5238597;28;20218;-74
2022/09/09 13:02:20;;;;;;;3.13;0.60;;;27.30;99.90;;;;;;5212591;28;20048;-75
2022/09/09 13:04:53;;;;;;;0.60;0.60;;;27.20;99.90;;;;;;5222079;28;20319;-75
2022/09/09 13:07:32;;;;;;;0.50;0.50;;;27.20;99.90;;;;;;5202443;28;20084;-75
2022/09/09 13:10:04;;;;;;;0.60;0.60;;;26.80;99.90;;;;;;5238505;28;20033;-74
2022/09/09 13:12:38;;;;;;;0.60;0.60;;;26.60;99.90;;;;;;5239725;28;20040;-74
2022/09/09 13:15:20;;;;;;;0.75;0.70;;;26.20;99.90;;;;;;5205208;28;20045;-74
2022/09/09 13:18:03;;;;;;;0.60;0.60;;;26.20;99.90;;;;;;5219369;28;20045;-74
2022/09/09 13:20:34;;;;;;;0.80;0.80;;;26.00;99.90;;;;;;5203717;28;20193;-75
2022/09/09 13:23:21;;;;;;;0.57;0.57;;;26.00;99.90;;;;;;5187895;28;20074;-74
2022/09/09 13:26:29;;;;;;;2.22;0.80;;;25.60;99.90;;;;;;5217231;28;20048;-75
2022/09/09 13:29:22;;;;;;;1.38;0.60;;;25.70;99.90;;;;;;5215036;28;20249;-74
2022/09/09 13:32:17;;;;;;;2.00;0.65;;;25.90;99.90;;;;;;5222560;28;20052;-74
2022/09/09 13:35:01;;;;;;;0.95;0.90;;;25.90;99.90;;;;;;5214635;28;20559;-74
2022/09/09 13:37:43;;;;;;;0.82;0.60;;;25.60;99.90;;;;;;5215600;28;20021;-75
2022/09/09 13:40:21;;;;;;;1.25;1.00;;;25.10;99.90;;;;;;5235532;28;20052;-74
2022/09/09 13:42:58;;;;;;;1.55;0.90;;;24.50;99.90;;;;;;5217617;28;20236;-74
2022/09/09 13:45:34;;;;;;;2.55;0.75;;;24.20;99.90;;;;;;5238196;28;20050;-74
2022/09/09 13:48:10;;;;;;;0.85;0.80;;;24.10;99.90;;;;;;5221204;28;20043;-75
2022/09/09 13:50:44;;;;;;;2.25;1.02;;;24.00;99.90;;;;;;5237949;28;20122;-75
2022/09/09 13:53:19;;;;;;;1.10;0.98;;;24.00;99.90;;;;;;5221032;28;20036;-74
2022/09/09 13:55:51;;;;;;;2.75;0.80;;;23.90;99.90;;;;;;5214496;28;20033;-75
2022/09/09 13:58:25;;;;;;;1.20;0.95;;;23.90;99.90;;;;;;5200537;28;20358;-74
2022/09/09 14:01:01;;;;;;;1.80;0.98;;;23.80;99.90;;;;;;5212669;28;20124;-74
2022/09/09 14:03:33;;;;;;;0.80;0.80;;;23.60;99.90;;;;;;5238291;28;20066;-75